createdAt,value
2017-09-02T00:00:54.826Z,8.38
2017-09-02T00:02:05.099Z,8.36
2017-09-02T00:03:15.373Z,8.36
2017-09-02T00:04:25.644Z,8.27
2017-09-02T00:05:35.909Z,8.23
2017-09-02T00:06:46.176Z,8.24
2017-09-02T00:07:56.439Z,8.21
2017-09-02T00:09:06.708Z,8.27
2017-09-02T00:10:16.980Z,8.28
2017-09-02T00:11:26.925Z,8.28
2017-09-02T00:12:36.866Z,8.16
2017-09-02T00:13:47.132Z,8.18
2017-09-02T00:14:57.072Z,8.17
2017-09-02T00:16:07.338Z,8.05
2017-09-02T00:17:17.603Z,8.02
2017-09-02T00:18:27.875Z,8.03
2017-09-02T00:19:38.140Z,8.01
2017-09-02T00:20:48.402Z,8.06
2017-09-02T00:21:58.668Z,8.01
2017-09-02T00:23:08.940Z,8.08
2017-09-02T00:24:19.202Z,7.95
2017-09-02T00:25:29.147Z,8.05
2017-09-02T00:26:39.089Z,7.98
2017-09-02T00:27:49.068Z,8.01
2017-09-02T00:28:59.345Z,7.96
2017-09-02T00:30:09.291Z,8.03
2017-09-02T00:31:19.560Z,8.05
2017-09-02T00:32:29.500Z,8.03
2017-09-02T00:33:39.445Z,8.02
2017-09-02T00:34:49.394Z,8.03
2017-09-02T00:35:59.341Z,7.99
2017-09-02T00:37:09.282Z,8.02
2017-09-02T00:38:19.579Z,8.02
2017-09-02T00:39:29.529Z,8.09
2017-09-02T00:40:39.794Z,8.08
2017-09-02T00:41:50.056Z,8.08
2017-09-02T00:43:00.356Z,8.05
2017-09-02T00:44:10.300Z,8.02
2017-09-02T00:45:20.244Z,8.09
2017-09-02T00:46:30.507Z,8.08
2017-09-02T00:47:40.447Z,8.01
2017-09-02T00:48:50.726Z,8.02
2017-09-02T00:50:00.988Z,8.03
2017-09-02T00:51:10.932Z,8.05
2017-09-02T00:52:21.203Z,7.96
2017-09-02T00:53:31.472Z,8.03
2017-09-02T00:54:41.739Z,7.99
2017-09-02T00:55:51.686Z,7.93
2017-09-02T00:57:01.308Z,8.06
2017-09-02T00:58:11.572Z,8.02
2017-09-02T00:59:21.844Z,8.03
2017-09-02T01:00:31.472Z,8.05
2017-09-02T01:01:41.744Z,7.98
2017-09-02T01:02:52.007Z,7.95
2017-09-02T01:04:02.285Z,8.01
2017-09-02T01:05:11.912Z,7.93
2017-09-02T01:06:22.179Z,7.93
2017-09-02T01:07:32.453Z,7.88
2017-09-02T01:08:43.067Z,7.96
2017-09-02T01:09:53.021Z,7.88
2017-09-02T01:11:03.325Z,7.96
2017-09-02T01:12:13.595Z,7.91
2017-09-02T01:13:23.538Z,7.93
2017-09-02T01:14:33.822Z,7.9
2017-09-02T01:15:44.092Z,7.88
2017-09-02T01:16:54.359Z,7.88
2017-09-02T01:18:04.652Z,7.83
2017-09-02T01:19:14.593Z,7.87
2017-09-02T01:20:24.546Z,7.78
2017-09-02T01:21:34.813Z,7.7
2017-09-02T01:22:45.081Z,7.67
2017-09-02T01:23:55.344Z,7.61
2017-09-02T01:25:05.286Z,7.59
2017-09-02T01:26:15.550Z,7.55
2017-09-02T01:27:25.816Z,7.59
2017-09-02T01:28:36.088Z,7.58
2017-09-02T01:29:46.032Z,7.59
2017-09-02T01:30:56.296Z,7.62
2017-09-02T01:32:06.818Z,7.53
2017-09-02T01:33:17.084Z,7.51
2017-09-02T01:34:27.348Z,7.5
2017-09-02T01:35:37.621Z,7.46
2017-09-02T01:36:47.563Z,7.47
2017-09-02T01:37:57.826Z,7.56
2017-09-02T01:39:08.088Z,7.53
2017-09-02T01:40:18.358Z,7.46
2017-09-02T01:41:28.301Z,7.39
2017-09-02T01:42:38.243Z,7.39
2017-09-02T01:43:48.188Z,7.41
2017-09-02T01:44:58.455Z,7.33
2017-09-02T01:46:08.719Z,7.4
2017-09-02T01:47:19.019Z,7.43
2017-09-02T01:48:29.281Z,7.4
2017-09-02T01:49:39.546Z,7.33
2017-09-02T01:50:49.486Z,7.46
2017-09-02T01:51:59.429Z,7.33
2017-09-02T01:53:09.702Z,7.36
2017-09-02T01:54:19.971Z,7.41
2017-09-02T01:55:29.918Z,7.37
2017-09-02T01:56:39.867Z,7.4
2017-09-02T01:57:49.812Z,7.37
2017-09-02T01:59:00.074Z,7.31
2017-09-02T02:00:10.016Z,7.25
2017-09-02T02:01:20.283Z,7.23
2017-09-02T02:02:29.940Z,7.31
2017-09-02T02:03:40.203Z,7.29
2017-09-02T02:04:50.465Z,7.25
2017-09-02T02:06:00.413Z,7.29
2017-09-02T02:07:10.356Z,7.23
2017-09-02T02:08:20.617Z,7.26
2017-09-02T02:09:30.880Z,7.28
2017-09-02T02:10:40.824Z,7.23
2017-09-02T02:11:50.767Z,7.26
2017-09-02T02:13:01.033Z,7.21
2017-09-02T02:14:10.977Z,7.28
2017-09-02T02:15:20.921Z,7.28
2017-09-02T02:16:31.198Z,7.22
2017-09-02T02:17:41.467Z,7.13
2017-09-02T02:18:51.418Z,7.1
2017-09-02T02:20:01.680Z,7.22
2017-09-02T02:21:11.950Z,7.15
2017-09-02T02:22:22.212Z,7.15
2017-09-02T02:23:32.154Z,7.15
2017-09-02T02:24:42.432Z,7.19
2017-09-02T02:25:52.694Z,7.07
2017-09-02T02:27:02.963Z,7.1
2017-09-02T02:28:13.233Z,7.07
2017-09-02T02:29:23.495Z,7.07
2017-09-02T02:30:33.596Z,7.15
2017-09-02T02:31:43.862Z,7.13
2017-09-02T02:32:54.129Z,7.1
2017-09-02T02:34:04.392Z,7.04
2017-09-02T02:35:14.336Z,7.1
2017-09-02T02:36:24.607Z,7.05
2017-09-02T02:37:34.548Z,7.05
2017-09-02T02:38:44.496Z,7.03
2017-09-02T02:39:54.440Z,7.05
2017-09-02T02:41:04.383Z,7.07
2017-09-02T02:42:14.660Z,7.11
2017-09-02T02:43:24.923Z,7.05
2017-09-02T02:44:35.196Z,7.04
2017-09-02T02:45:45.146Z,7.07
2017-09-02T02:46:55.429Z,7.04
2017-09-02T02:48:05.706Z,7
2017-09-02T02:49:15.971Z,7.01
2017-09-02T02:50:25.919Z,7.05
2017-09-02T02:51:35.537Z,7.05
2017-09-02T02:52:45.519Z,7.04
2017-09-02T02:53:55.789Z,7.04
2017-09-02T02:55:05.732Z,7.08
2017-09-02T02:56:16.007Z,7.04
2017-09-02T02:57:25.954Z,7.07
2017-09-02T02:58:36.213Z,7.03
2017-09-02T02:59:46.156Z,7.07
2017-09-02T03:00:56.419Z,7.07
2017-09-02T03:02:06.365Z,7.01
2017-09-02T03:03:16.307Z,7.1
2017-09-02T03:04:26.250Z,7.1
2017-09-02T03:05:36.520Z,7.03
2017-09-02T03:06:46.793Z,6.95
2017-09-02T03:07:57.060Z,6.97
2017-09-02T03:09:07.335Z,6.93
2017-09-02T03:10:17.276Z,6.92
2017-09-02T03:11:27.541Z,6.87
2017-09-02T03:12:37.805Z,6.93
2017-09-02T03:13:48.068Z,6.9
2017-09-02T03:14:58.331Z,6.95
2017-09-02T03:16:08.605Z,6.92
2017-09-02T03:17:18.869Z,6.83
2017-09-02T03:18:29.143Z,6.85
2017-09-02T03:19:39.091Z,6.83
2017-09-02T03:20:49.033Z,6.74
2017-09-02T03:21:58.976Z,6.75
2017-09-02T03:23:09.240Z,6.77
2017-09-02T03:24:19.503Z,6.74
2017-09-02T03:25:29.445Z,6.75
2017-09-02T03:26:39.714Z,6.82
2017-09-02T03:27:50.006Z,6.74
2017-09-02T03:29:00.298Z,6.8
2017-09-02T03:30:10.251Z,6.77
2017-09-02T03:31:20.520Z,6.8
2017-09-02T03:32:30.466Z,6.71
2017-09-02T03:33:40.414Z,6.82
2017-09-02T03:34:50.680Z,6.77
2017-09-02T03:36:00.948Z,6.75
2017-09-02T03:37:11.211Z,6.68
2017-09-02T03:38:21.496Z,6.62
2017-09-02T03:39:31.757Z,6.72
2017-09-02T03:40:42.032Z,6.72
2017-09-02T03:41:51.975Z,6.75
2017-09-02T03:43:02.245Z,6.68
2017-09-02T03:44:12.512Z,6.56
2017-09-02T03:45:22.777Z,6.67
2017-09-02T03:46:33.048Z,6.62
2017-09-02T03:47:43.312Z,6.67
2017-09-02T03:48:53.589Z,6.68
2017-09-02T03:50:03.850Z,6.56
2017-09-02T03:51:14.116Z,6.56
2017-09-02T03:52:24.379Z,6.72
2017-09-02T03:53:34.641Z,6.72
2017-09-02T03:54:44.585Z,6.71
2017-09-02T03:55:54.846Z,6.71
2017-09-02T03:57:05.112Z,6.72
2017-09-02T03:58:15.372Z,6.74
2017-09-02T03:59:25.317Z,6.74
2017-09-02T04:00:35.263Z,6.56
2017-09-02T04:01:45.205Z,6.74
2017-09-02T04:02:55.465Z,6.62
2017-09-02T04:04:05.410Z,6.67
2017-09-02T04:05:15.679Z,6.64
2017-09-02T04:06:25.962Z,6.56
2017-09-02T04:07:36.224Z,6.6
2017-09-02T04:08:46.492Z,6.49
2017-09-02T04:09:56.753Z,6.64
2017-09-02T04:11:07.018Z,6.59
2017-09-02T04:12:17.294Z,6.6
2017-09-02T04:13:27.239Z,6.5
2017-09-02T04:14:37.503Z,6.53
2017-09-02T04:15:49.449Z,6.56
2017-09-02T04:16:59.711Z,6.57
2017-09-02T04:18:09.657Z,6.62
2017-09-02T04:19:19.918Z,6.59
2017-09-02T04:20:30.186Z,6.62
2017-09-02T04:21:40.465Z,6.54
2017-09-02T04:22:50.747Z,6.54
2017-09-02T04:24:01.017Z,6.6
2017-09-02T04:25:11.281Z,6.6
2017-09-02T04:26:21.222Z,6.57
2017-09-02T04:27:30.846Z,6.56
2017-09-02T04:28:40.789Z,6.5
2017-09-02T04:29:51.069Z,6.57
2017-09-02T04:31:01.332Z,6.53
2017-09-02T04:32:11.271Z,6.6
2017-09-02T04:33:21.538Z,6.59
2017-09-02T04:34:31.810Z,6.6
2017-09-02T04:35:41.767Z,6.59
2017-09-02T04:36:52.063Z,6.49
2017-09-02T04:38:02.336Z,6.57
2017-09-02T04:39:12.611Z,6.57
2017-09-02T04:40:22.880Z,6.62
2017-09-02T04:41:32.838Z,6.56
2017-09-02T04:42:42.780Z,6.57
2017-09-02T04:43:53.048Z,6.62
2017-09-02T04:45:03.317Z,6.64
2017-09-02T04:46:13.589Z,6.53
2017-09-02T04:47:23.854Z,6.56
2017-09-02T04:48:34.118Z,6.52
2017-09-02T04:49:44.061Z,6.54
2017-09-02T04:50:54.006Z,6.57
2017-09-02T04:52:04.275Z,6.57
2017-09-02T04:53:14.539Z,6.57
2017-09-02T04:54:23.835Z,6.47
2017-09-02T04:55:34.102Z,6.52
2017-09-02T04:56:47.592Z,6.64
2017-09-02T04:57:57.857Z,6.56
2017-09-02T04:59:08.121Z,6.53
2017-09-02T05:00:18.386Z,6.57
2017-09-02T05:01:28.651Z,6.57
2017-09-02T05:02:38.916Z,6.56
2017-09-02T05:03:49.179Z,6.62
2017-09-02T05:04:59.122Z,6.62
2017-09-02T05:06:09.065Z,6.71
2017-09-02T05:07:19.332Z,6.62
2017-09-02T05:08:28.959Z,6.59
2017-09-02T05:09:39.223Z,6.74
2017-09-02T05:10:49.489Z,6.72
2017-09-02T05:11:59.749Z,6.74
2017-09-02T05:13:10.021Z,6.77
2017-09-02T05:14:20.285Z,6.74
2017-09-02T05:15:29.904Z,6.77
2017-09-02T05:16:40.175Z,6.92
2017-09-02T05:17:50.122Z,6.92
2017-09-02T05:19:00.063Z,6.97
2017-09-02T05:20:10.330Z,7.03
2017-09-02T05:21:20.591Z,7.05
2017-09-02T05:22:30.854Z,7.13
2017-09-02T05:23:40.801Z,7.07
2017-09-02T05:24:51.064Z,7.07
2017-09-02T05:26:01.337Z,7.11
2017-09-02T05:27:11.622Z,7.14
2017-09-02T05:28:21.564Z,7.14
2017-09-02T05:29:31.835Z,7.22
2017-09-02T05:30:42.102Z,7.21
2017-09-02T05:31:51.723Z,7.14
2017-09-02T05:33:01.985Z,7.19
2017-09-02T05:34:11.928Z,7.28
2017-09-02T05:35:21.868Z,7.26
2017-09-02T05:36:32.131Z,7.37
2017-09-02T05:37:42.395Z,7.33
2017-09-02T05:38:52.017Z,7.4
2017-09-02T05:40:01.958Z,7.36
2017-09-02T05:41:11.904Z,7.51
2017-09-02T05:42:21.846Z,7.5
2017-09-02T05:43:31.471Z,7.64
2017-09-02T05:44:41.742Z,7.55
2017-09-02T05:45:51.689Z,7.61
2017-09-02T05:47:01.629Z,7.72
2017-09-02T05:48:11.585Z,7.7
2017-09-02T05:49:21.846Z,7.74
2017-09-02T05:50:31.473Z,7.81
2017-09-02T05:51:41.739Z,7.77
2017-09-02T05:52:51.684Z,7.9
2017-09-02T05:54:01.971Z,7.88
2017-09-02T05:55:12.233Z,7.91
2017-09-02T05:56:22.501Z,7.99
2017-09-02T05:57:32.123Z,8.03
2017-09-02T05:58:42.388Z,7.96
2017-09-02T05:59:51.692Z,7.98
2017-09-02T06:01:01.960Z,8.09
2017-09-02T06:02:12.230Z,8.2
2017-09-02T06:03:22.498Z,8.23
2017-09-02T06:04:32.122Z,8.35
2017-09-02T06:05:42.398Z,8.42
2017-09-02T06:06:52.665Z,8.56
2017-09-02T06:08:02.936Z,8.63
2017-09-02T06:09:12.880Z,8.74
2017-09-02T06:10:23.150Z,8.78
2017-09-02T06:11:33.415Z,8.86
2017-09-02T06:12:43.718Z,8.96
2017-09-02T06:13:53.983Z,9.02
2017-09-02T06:15:04.263Z,9.09
2017-09-02T06:16:14.538Z,9.16
2017-09-02T06:17:24.807Z,9.31
2017-09-02T06:18:34.751Z,9.34
2017-09-02T06:19:45.021Z,9.37
2017-09-02T06:20:54.962Z,9.45
2017-09-02T06:22:05.242Z,9.48
2017-09-02T06:23:15.187Z,9.52
2017-09-02T06:24:25.453Z,9.55
2017-09-02T06:25:35.075Z,9.62
2017-09-02T06:26:45.353Z,9.62
2017-09-02T06:27:55.618Z,9.73
2017-09-02T06:29:05.573Z,9.8
2017-09-02T06:30:15.843Z,9.76
2017-09-02T06:31:25.787Z,9.84
2017-09-02T06:32:35.731Z,9.94
2017-09-02T06:33:45.358Z,9.9
2017-09-02T06:34:55.623Z,9.94
2017-09-02T06:36:05.893Z,9.9
2017-09-02T06:37:15.842Z,9.88
2017-09-02T06:38:25.791Z,9.9
2017-09-02T06:39:36.066Z,9.84
2017-09-02T06:40:46.333Z,9.82
2017-09-02T06:41:56.280Z,9.92
2017-09-02T06:43:06.230Z,9.87
2017-09-02T06:44:16.504Z,10.02
2017-09-02T06:45:26.451Z,9.9
2017-09-02T06:46:36.394Z,10.05
2017-09-02T06:47:46.342Z,10.07
2017-09-02T06:48:56.296Z,10.09
2017-09-02T06:50:06.563Z,10.12
2017-09-02T06:51:16.829Z,10.17
2017-09-02T06:52:27.094Z,10.23
2017-09-02T06:53:37.365Z,10.21
2017-09-02T06:54:47.630Z,10.21
2017-09-02T06:55:57.578Z,10.36
2017-09-02T06:57:07.844Z,10.41
2017-09-02T06:58:18.117Z,10.34
2017-09-02T06:59:28.066Z,10.46
2017-09-02T07:00:38.338Z,10.55
2017-09-02T07:01:48.603Z,10.49
2017-09-02T07:02:58.562Z,10.61
2017-09-02T07:04:08.831Z,10.64
2017-09-02T07:05:19.099Z,10.68
2017-09-02T07:06:29.045Z,10.68
2017-09-02T07:07:39.349Z,10.67
2017-09-02T07:08:49.298Z,10.67
2017-09-02T07:09:59.563Z,10.82
2017-09-02T07:11:09.830Z,10.89
2017-09-02T07:12:20.110Z,10.92
2017-09-02T07:13:30.380Z,10.87
2017-09-02T07:14:40.664Z,11.01
2017-09-02T07:15:50.931Z,11.05
2017-09-02T07:17:01.199Z,11.15
2017-09-02T07:18:10.825Z,11.08
2017-09-02T07:19:21.093Z,11.18
2017-09-02T07:20:31.367Z,11.16
2017-09-02T07:21:41.639Z,11.22
2017-09-02T07:22:51.907Z,11.34
2017-09-02T07:24:02.178Z,11.37
2017-09-02T07:25:12.443Z,11.41
2017-09-02T07:26:22.749Z,11.45
2017-09-02T07:27:32.697Z,11.53
2017-09-02T07:28:42.321Z,11.56
2017-09-02T07:29:52.264Z,11.53
2017-09-02T07:31:01.890Z,11.65
2017-09-02T07:32:11.838Z,11.62
2017-09-02T07:33:22.107Z,11.83
2017-09-02T07:34:32.374Z,11.89
2017-09-02T07:35:42.327Z,11.88
2017-09-02T07:36:52.271Z,11.99
2017-09-02T07:38:02.538Z,12.08
2017-09-02T07:39:12.806Z,12.14
2017-09-02T07:40:23.077Z,12.28
2017-09-02T07:41:32.704Z,12.15
2017-09-02T07:42:42.981Z,12.08
2017-09-02T07:43:52.928Z,12.07
2017-09-02T07:45:03.194Z,11.95
2017-09-02T07:46:13.467Z,11.89
2017-09-02T07:47:23.736Z,11.97
2017-09-02T07:48:33.690Z,12
2017-09-02T07:49:43.956Z,12.05
2017-09-02T07:50:53.583Z,12.17
2017-09-02T07:52:03.533Z,12.12
2017-09-02T07:53:13.802Z,11.96
2017-09-02T07:54:24.078Z,12.21
2017-09-02T07:55:34.028Z,12.18
2017-09-02T07:56:44.298Z,12.21
2017-09-02T07:57:54.571Z,12.39
2017-09-02T07:59:04.851Z,12.43
2017-09-02T08:00:15.147Z,12.39
2017-09-02T08:01:25.106Z,12.32
2017-09-02T08:02:35.056Z,12.45
2017-09-02T08:03:45.002Z,12.37
2017-09-02T08:04:54.952Z,12.43
2017-09-02T08:06:05.224Z,12.47
2017-09-02T08:07:15.493Z,12.45
2017-09-02T08:08:25.761Z,12.57
2017-09-02T08:09:35.730Z,12.55
2017-09-02T08:10:46.001Z,12.63
2017-09-02T08:11:56.272Z,12.8
2017-09-02T08:13:06.539Z,12.83
2017-09-02T08:14:16.810Z,12.78
2017-09-02T08:15:27.086Z,12.94
2017-09-02T08:16:37.358Z,13.03
2017-09-02T08:17:47.632Z,13.09
2017-09-02T08:18:57.901Z,13.13
2017-09-02T08:20:07.858Z,13.19
2017-09-02T08:21:18.123Z,13.19
2017-09-02T08:22:27.749Z,13.26
2017-09-02T08:23:38.019Z,13.28
2017-09-02T08:24:48.296Z,13.42
2017-09-02T08:25:58.252Z,13.37
2017-09-02T08:27:08.533Z,13.42
2017-09-02T08:28:18.484Z,13.55
2017-09-02T08:29:28.431Z,13.5
2017-09-02T08:30:38.380Z,13.57
2017-09-02T08:31:48.334Z,13.61
2017-09-02T08:32:58.621Z,13.71
2017-09-02T08:34:08.893Z,13.75
2017-09-02T08:35:19.165Z,13.85
2017-09-02T08:36:29.155Z,13.79
2017-09-02T08:37:39.428Z,13.86
2017-09-02T08:38:49.697Z,13.97
2017-09-02T08:39:59.643Z,13.94
2017-09-02T08:41:09.918Z,14.05
2017-09-02T08:42:19.872Z,14.08
2017-09-02T08:43:30.147Z,14.16
2017-09-02T08:44:40.422Z,14.28
2017-09-02T08:45:50.372Z,14.31
2017-09-02T08:47:00.644Z,14.38
2017-09-02T08:48:10.916Z,14.36
2017-09-02T08:49:21.191Z,14.44
2017-09-02T08:50:30.824Z,14.41
2017-09-02T08:51:41.104Z,14.56
2017-09-02T08:52:51.375Z,14.59
2017-09-02T08:54:01.652Z,14.66
2017-09-02T08:55:11.925Z,14.56
2017-09-02T08:56:22.197Z,14.66
2017-09-02T08:57:32.471Z,14.74
2017-09-02T08:58:42.739Z,14.82
2017-09-02T08:59:52.687Z,14.71
2017-09-02T09:01:02.635Z,14.85
2017-09-02T09:02:12.586Z,14.9
2017-09-02T09:03:22.535Z,14.94
2017-09-02T09:04:32.816Z,14.97
2017-09-02T09:05:43.085Z,14.94
2017-09-02T09:06:53.035Z,15.05
2017-09-02T09:08:02.987Z,15.12
2017-09-02T09:09:13.262Z,15.14
2017-09-02T09:10:23.539Z,15.27
2017-09-02T09:11:33.491Z,15.32
2017-09-02T09:12:43.762Z,15.3
2017-09-02T09:13:53.719Z,15.43
2017-09-02T09:15:03.670Z,15.48
2017-09-02T09:16:13.949Z,15.52
2017-09-02T09:17:24.220Z,15.62
2017-09-02T09:18:34.171Z,15.7
2017-09-02T09:19:44.470Z,15.81
2017-09-02T09:20:54.741Z,15.87
2017-09-02T09:22:05.046Z,15.94
2017-09-02T09:23:15.324Z,15.96
2017-09-02T09:24:25.595Z,16.06
2017-09-02T09:25:35.562Z,16
2017-09-02T09:26:45.833Z,16.12
2017-09-02T09:27:56.124Z,16.22
2017-09-02T09:29:06.398Z,16.18
2017-09-02T09:30:16.667Z,16.31
2017-09-02T09:31:26.617Z,16.31
2017-09-02T09:32:36.892Z,16.41
2017-09-02T09:33:46.851Z,16.37
2017-09-02T09:34:57.126Z,16.41
2017-09-02T09:36:07.399Z,16.51
2017-09-02T09:37:17.350Z,16.43
2017-09-02T09:38:27.631Z,16.55
2017-09-02T09:39:37.914Z,16.51
2017-09-02T09:40:48.193Z,16.55
2017-09-02T09:41:58.472Z,16.55
2017-09-02T09:43:08.748Z,16.51
2017-09-02T09:44:18.701Z,16.55
2017-09-02T09:45:28.655Z,16.49
2017-09-02T09:46:38.929Z,16.54
2017-09-02T09:47:49.204Z,16.76
2017-09-02T09:48:58.844Z,16.66
2017-09-02T09:50:08.796Z,16.74
2017-09-02T09:51:19.065Z,16.82
2017-09-02T09:52:29.018Z,16.87
2017-09-02T09:53:38.646Z,16.94
2017-09-02T09:54:48.599Z,17.02
2017-09-02T09:55:58.552Z,16.98
2017-09-02T09:57:08.181Z,16.87
2017-09-02T09:58:17.809Z,16.95
2017-09-02T09:59:27.778Z,16.86
2017-09-02T10:00:37.085Z,17.09
2017-09-02T10:01:46.719Z,17.05
2017-09-02T10:02:56.992Z,17.09
2017-09-02T10:04:06.977Z,17.07
2017-09-02T10:05:17.252Z,17.1
2017-09-02T10:06:27.535Z,17.16
2017-09-02T10:07:37.810Z,17.16
2017-09-02T10:08:48.080Z,17.19
2017-09-02T10:09:58.352Z,17.23
2017-09-02T10:11:08.303Z,17.32
2017-09-02T10:12:18.265Z,17.32
2017-09-02T10:13:28.536Z,17.35
2017-09-02T10:14:38.815Z,17.31
2017-09-02T10:15:48.764Z,17.38
2017-09-02T10:16:59.053Z,17.39
2017-09-02T10:18:09.003Z,17.41
2017-09-02T10:19:19.300Z,17.34
2017-09-02T10:20:28.929Z,17.37
2017-09-02T10:21:39.200Z,17.23
2017-09-02T10:22:48.509Z,17.22
2017-09-02T10:23:58.782Z,17.16
2017-09-02T10:25:09.055Z,17.13
2017-09-02T10:26:19.336Z,17.09
2017-09-02T10:27:29.286Z,17.04
2017-09-02T10:28:39.240Z,17.01
2017-09-02T10:29:49.189Z,16.92
2017-09-02T10:30:59.463Z,16.94
2017-09-02T10:32:09.736Z,16.89
2017-09-02T10:33:19.692Z,16.82
2017-09-02T10:34:29.644Z,16.83
2017-09-02T10:35:39.916Z,16.66
2017-09-02T10:36:49.866Z,16.72
2017-09-02T10:38:00.135Z,16.58
2017-09-02T10:39:10.408Z,16.68
2017-09-02T10:40:20.682Z,16.65
2017-09-02T10:41:30.641Z,16.61
2017-09-02T10:42:40.932Z,16.64
2017-09-02T10:43:50.903Z,16.65
2017-09-02T10:45:01.172Z,16.58
2017-09-02T10:46:11.124Z,16.69
2017-09-02T10:47:21.397Z,16.76
2017-09-02T10:48:31.667Z,16.74
2017-09-02T10:49:41.616Z,16.83
2017-09-02T10:50:51.887Z,16.82
2017-09-02T10:52:02.161Z,16.73
2017-09-02T10:53:12.436Z,16.46
2017-09-02T10:54:22.387Z,16.62
2017-09-02T10:55:32.662Z,16.44
2017-09-02T10:56:42.292Z,16.39
2017-09-02T10:57:52.562Z,16.44
2017-09-02T10:59:02.835Z,16.41
2017-09-02T11:00:13.106Z,16.32
2017-09-02T11:01:23.384Z,16.29
2017-09-02T11:02:33.660Z,16.36
2017-09-02T11:03:43.621Z,16.47
2017-09-02T11:04:53.889Z,16.59
2017-09-02T11:06:04.172Z,16.5
2017-09-02T11:07:14.126Z,16.54
2017-09-02T11:08:24.398Z,16.29
2017-09-02T11:09:34.354Z,16.36
2017-09-02T11:10:44.627Z,16.34
2017-09-02T11:11:54.903Z,16.09
2017-09-02T11:13:04.534Z,16.34
2017-09-02T11:14:14.812Z,16.72
2017-09-02T11:15:25.093Z,17.16
2017-09-02T11:16:35.368Z,17.75
2017-09-02T11:17:45.654Z,18.31
2017-09-02T11:18:55.930Z,18.48
2017-09-02T11:20:06.202Z,19.05
2017-09-02T11:21:16.477Z,19.63
2017-09-02T11:22:26.754Z,19.93
2017-09-02T11:23:36.725Z,20.48
2017-09-02T11:24:47.007Z,21.13
2017-09-02T11:25:56.967Z,21.45
2017-09-02T11:27:07.245Z,21.92
2017-09-02T11:28:16.880Z,22.36
2017-09-02T11:29:26.842Z,22.93
2017-09-02T11:30:36.801Z,23.02
2017-09-02T11:31:46.761Z,22.71
2017-09-02T11:32:57.040Z,22.28
2017-09-02T11:34:07.319Z,21.94
2017-09-02T11:35:17.601Z,21.8
2017-09-02T11:36:27.886Z,21.94
2017-09-02T11:37:37.850Z,22.38
2017-09-02T11:38:48.132Z,22.46
2017-09-02T11:39:58.093Z,22.76
2017-09-02T11:41:08.388Z,22.92
2017-09-02T11:42:18.351Z,23.18
2017-09-02T11:43:27.994Z,22.53
2017-09-02T11:44:37.960Z,22.78
2017-09-02T11:45:47.934Z,22.51
2017-09-02T11:46:57.892Z,22.7
2017-09-02T11:48:08.182Z,23.21
2017-09-02T11:49:18.466Z,22.56
2017-09-02T11:50:28.104Z,23.26
2017-09-02T11:51:38.389Z,23.45
2017-09-02T11:52:48.681Z,24.04
2017-09-02T11:53:58.643Z,24.55
2017-09-02T11:55:08.928Z,25.11
2017-09-02T11:56:19.219Z,25.61
2017-09-02T11:57:28.858Z,25.78
2017-09-02T11:58:38.817Z,26.04
2017-09-02T11:59:48.802Z,26.46
2017-09-02T12:00:59.084Z,26.82
2017-09-02T12:02:09.049Z,27.05
2017-09-02T12:03:18.692Z,27.5
2017-09-02T12:04:28.980Z,27.95
2017-09-02T12:05:39.264Z,27.86
2017-09-02T12:06:48.586Z,28.3
2017-09-02T12:07:58.873Z,28.28
2017-09-02T12:09:08.840Z,28.27
2017-09-02T12:10:18.802Z,28.41
2017-09-02T12:11:29.091Z,28.12
2017-09-02T12:12:39.054Z,28.57
2017-09-02T12:13:49.343Z,28.28
2017-09-02T12:14:59.309Z,28.68
2017-09-02T12:16:09.279Z,28.09
2017-09-02T12:17:19.246Z,27.81
2017-09-02T12:18:28.887Z,27.63
2017-09-02T12:19:38.543Z,27.45
2017-09-02T12:20:48.828Z,27.6
2017-09-02T12:21:59.118Z,28.06
2017-09-02T12:23:09.413Z,28.34
2017-09-02T12:24:19.385Z,28.46
2017-09-02T12:25:29.680Z,28.28
2017-09-02T12:26:39.992Z,28.83
2017-09-02T12:27:50.278Z,29.4
2017-09-02T12:29:00.581Z,29.69
2017-09-02T12:30:10.871Z,30.06
2017-09-02T12:31:21.170Z,30.33
2017-09-02T12:32:31.135Z,30.71
2017-09-02T12:33:41.431Z,30.98
2017-09-02T12:34:51.722Z,31.35
2017-09-02T12:36:02.012Z,31.66
2017-09-02T12:37:11.983Z,31.74
2017-09-02T12:38:22.277Z,32.09
2017-09-02T12:39:31.926Z,32.37
2017-09-02T12:40:41.895Z,32.38
2017-09-02T12:41:52.182Z,32.27
2017-09-02T12:43:02.472Z,32.42
2017-09-02T12:44:12.118Z,32.64
2017-09-02T12:45:22.084Z,32.97
2017-09-02T12:46:32.057Z,32.97
2017-09-02T12:47:42.028Z,32.91
2017-09-02T12:48:51.997Z,32.34
2017-09-02T12:50:02.303Z,31.54
2017-09-02T12:51:12.282Z,30.92
2017-09-02T12:52:21.928Z,30.16
2017-09-02T12:53:32.216Z,29.55
2017-09-02T12:54:42.508Z,28.94
2017-09-02T12:55:52.793Z,28.49
2017-09-02T12:57:03.120Z,28.19
2017-09-02T12:58:13.086Z,27.93
2017-09-02T12:59:23.387Z,27.55
2017-09-02T13:00:33.672Z,27
2017-09-02T13:01:43.636Z,26.74
2017-09-02T13:02:53.926Z,26.48
2017-09-02T13:04:03.894Z,26.18
2017-09-02T13:05:14.182Z,25.62
2017-09-02T13:06:24.467Z,25.26
2017-09-02T13:07:34.448Z,25.15
2017-09-02T13:08:44.418Z,24.88
2017-09-02T13:09:54.702Z,24.58
2017-09-02T13:11:04.991Z,24.37
2017-09-02T13:12:15.281Z,24.11
2017-09-02T13:13:24.921Z,24.04
2017-09-02T13:14:35.203Z,24.01
2017-09-02T13:15:45.486Z,23.95
2017-09-02T13:16:55.446Z,24.07
2017-09-02T13:18:05.727Z,24.59
2017-09-02T13:19:15.707Z,24.89
2017-09-02T13:20:25.668Z,25.46
2017-09-02T13:21:35.662Z,26.04
2017-09-02T13:22:44.978Z,26.45
2017-09-02T13:23:54.966Z,27.16
2017-09-02T13:25:05.262Z,27.33
2017-09-02T13:26:15.558Z,27.55
2017-09-02T13:27:25.520Z,28.19
2017-09-02T13:28:35.488Z,28.84
2017-09-02T13:29:45.791Z,29.06
2017-09-02T13:30:56.428Z,29.4
2017-09-02T13:32:06.714Z,29.71
2017-09-02T13:33:16.675Z,29.84
2017-09-02T13:34:26.640Z,30.29
2017-09-02T13:35:36.605Z,30.63
2017-09-02T13:36:46.573Z,30.92
2017-09-02T13:37:56.540Z,31.25
2017-09-02T13:39:06.828Z,31.42
2017-09-02T13:40:17.118Z,31.63
2017-09-02T13:41:27.402Z,31.98
2017-09-02T13:42:37.723Z,32.24
2017-09-02T13:43:48.012Z,32.46
2017-09-02T13:44:57.660Z,32.88
2017-09-02T13:46:07.956Z,32.95
2017-09-02T13:47:17.930Z,32.97
2017-09-02T13:48:28.216Z,32.78
2017-09-02T13:49:38.184Z,32.72
2017-09-02T13:50:48.148Z,32.59
2017-09-02T13:51:57.792Z,32.46
2017-09-02T13:53:07.763Z,32.72
2017-09-02T13:54:18.050Z,32.78
2017-09-02T13:55:28.341Z,32.66
2017-09-02T13:56:38.628Z,32.59
2017-09-02T13:57:48.920Z,32.39
2017-09-02T13:58:59.208Z,32.12
2017-09-02T14:00:09.502Z,31.78
2017-09-02T14:01:19.469Z,31.23
2017-09-02T14:02:29.760Z,30.77
2017-09-02T14:03:39.724Z,30.52
2017-09-02T14:04:49.717Z,30.23
2017-09-02T14:05:59.693Z,29.83
2017-09-02T14:07:09.659Z,29.32
2017-09-02T14:08:19.945Z,29.37
2017-09-02T14:09:30.228Z,29.21
2017-09-02T14:10:40.191Z,29.43
2017-09-02T14:11:50.153Z,30.05
2017-09-02T14:13:00.116Z,30.54
2017-09-02T14:14:10.084Z,31.08
2017-09-02T14:15:20.372Z,31.69
2017-09-02T14:16:30.662Z,32.07
2017-09-02T14:17:40.307Z,32.51
2017-09-02T14:18:50.268Z,32.83
2017-09-02T14:20:00.232Z,33
2017-09-02T14:21:10.199Z,33.19
2017-09-02T14:22:20.487Z,33.57
2017-09-02T14:23:30.451Z,33.87
2017-09-02T14:24:40.418Z,33.91
2017-09-02T14:25:50.388Z,34
2017-09-02T14:27:00.675Z,34.24
2017-09-02T14:28:10.319Z,34.48
2017-09-02T14:29:20.606Z,34.76
2017-09-02T14:30:30.571Z,34.38
2017-09-02T14:31:40.545Z,34.5
2017-09-02T14:32:50.509Z,34.79
2017-09-02T14:34:00.482Z,34.94
2017-09-02T14:35:10.474Z,35.1
2017-09-02T14:36:20.437Z,35.53
2017-09-02T14:37:29.806Z,35.63
2017-09-02T14:38:39.771Z,35.64
2017-09-02T14:39:50.072Z,35.79
2017-09-02T14:41:00.357Z,35.88
2017-09-02T14:42:10.657Z,36.01
2017-09-02T14:43:20.945Z,36.29
2017-09-02T14:44:30.913Z,36.43
2017-09-02T14:45:40.881Z,36.47
2017-09-02T14:46:50.531Z,36.41
2017-09-02T14:48:00.818Z,36.51
2017-09-02T14:49:11.145Z,36.65
2017-09-02T14:50:21.431Z,36.75
2017-09-02T14:51:31.076Z,36.91
2017-09-02T14:52:41.366Z,36.92
2017-09-02T14:53:51.332Z,37.11
2017-09-02T14:55:01.300Z,37.16
2017-09-02T14:56:11.273Z,36.92
2017-09-02T14:57:21.559Z,36.57
2017-09-02T14:58:31.849Z,36.55
2017-09-02T14:59:42.150Z,36.45
2017-09-02T15:00:52.119Z,36.55
2017-09-02T15:02:02.410Z,36.75
2017-09-02T15:03:12.700Z,36.97
2017-09-02T15:04:23.146Z,37
2017-09-02T15:05:33.435Z,37.07
2017-09-02T15:06:43.726Z,37.11
2017-09-02T15:07:53.692Z,37.41
2017-09-02T15:09:03.658Z,37.44
2017-09-02T15:10:13.962Z,37.09
2017-09-02T15:11:23.928Z,36.54
2017-09-02T15:12:34.216Z,36.43
2017-09-02T15:13:44.501Z,36.5
2017-09-02T15:14:54.470Z,36.53
2017-09-02T15:16:04.465Z,36.62
2017-09-02T15:17:14.754Z,36.65
2017-09-02T15:18:25.060Z,36.67
2017-09-02T15:19:35.033Z,36.59